createdAt,value
2018-07-12T00:00:01.403Z,12.8
2018-07-12T00:20:00.571Z,9.6
2018-07-12T00:40:00.851Z,9.0
2018-07-12T01:00:00.996Z,11.0
2018-07-12T01:20:01.261Z,9.2
2018-07-12T01:40:01.390Z,9.0
2018-07-12T02:00:00.590Z,9.0
2018-07-12T02:20:00.803Z,10.4
2018-07-12T02:40:01.122Z,11.0
2018-07-12T03:00:01.287Z,10.0
2018-07-12T03:20:01.532Z,10.0
2018-07-12T03:40:00.667Z,11.0
2018-07-12T04:00:00.879Z,11.4
2018-07-12T04:20:01.032Z,11.8
2018-07-12T04:40:01.428Z,13.2
2018-07-12T05:00:00.613Z,12.6
2018-07-12T05:20:00.685Z,13.2
2018-07-12T05:40:01.018Z,13.2
2018-07-12T05:45:00.934Z,13.6
2018-07-12T05:50:00.995Z,13.4
2018-07-12T05:55:00.880Z,12.8
2018-07-12T06:00:00.975Z,12.8
2018-07-12T06:05:00.909Z,12.6
2018-07-12T06:10:01.008Z,12.1
2018-07-12T06:15:00.943Z,11.5
2018-07-12T06:20:01.009Z,11.6
2018-07-12T06:25:00.941Z,11.2
2018-07-12T06:30:01.323Z,10.8
2018-07-12T06:35:00.963Z,10.4
2018-07-12T06:40:02.083Z,10.1
2018-07-12T06:45:00.941Z,9.6
2018-07-12T06:50:01.037Z,9.2
2018-07-12T06:55:00.957Z,9.0
2018-07-12T07:00:01.097Z,9.0
2018-07-12T07:05:00.960Z,9.0
2018-07-12T07:10:01.090Z,8.9
2018-07-12T07:15:00.960Z,9.2
2018-07-12T07:20:01.056Z,9.3
2018-07-12T07:25:00.931Z,9.1
2018-07-12T07:30:01.031Z,9.3
2018-07-12T07:35:00.967Z,9.2
2018-07-12T07:45:01.108Z,8.4
2018-07-12T07:50:01.111Z,8.4
2018-07-12T07:55:00.989Z,8.4
2018-07-12T08:00:01.023Z,8.7
2018-07-12T08:05:00.957Z,8.6
2018-07-12T08:10:00.989Z,9.0
2018-07-12T08:15:00.965Z,8.6
2018-07-12T08:20:01.106Z,8.2
2018-07-12T08:25:00.969Z,7.9
2018-07-12T08:30:01.619Z,7.8
2018-07-12T08:35:00.970Z,7.4
2018-07-12T08:45:01.039Z,7.2
2018-07-12T08:50:01.102Z,7.0
2018-07-12T08:55:00.975Z,6.6
2018-07-12T09:00:00.990Z,6.4
2018-07-12T09:10:00.988Z,6.4
2018-07-12T09:15:00.990Z,6.4
2018-07-12T09:20:01.111Z,6.4
2018-07-12T09:25:00.989Z,6.4
2018-07-12T09:30:00.975Z,6.6
2018-07-12T09:40:01.001Z,6.2
2018-07-12T09:45:01.000Z,5.7
2018-07-12T09:50:01.260Z,5.7
2018-07-12T09:55:01.007Z,5.4
2018-07-12T10:00:01.002Z,5.4
2018-07-12T10:05:01.000Z,5.5
2018-07-12T10:10:01.008Z,6.0
2018-07-12T10:15:00.996Z,6.1
2018-07-12T10:25:01.070Z,6.2
2018-07-12T10:30:01.348Z,6.2
2018-07-12T10:35:01.051Z,6.7
2018-07-12T10:45:01.107Z,7.3
2018-07-12T10:50:01.060Z,7.5
2018-07-12T10:55:01.048Z,7.7
2018-07-12T11:00:01.023Z,7.1
2018-07-12T11:10:01.124Z,7.0
2018-07-12T11:15:01.033Z,6.6
2018-07-12T11:20:01.039Z,7.0
2018-07-12T11:25:01.076Z,7.1
2018-07-12T11:30:01.110Z,6.9
2018-07-12T11:35:01.042Z,6.7
2018-07-12T11:40:01.071Z,6.8
2018-07-12T11:45:01.103Z,6.0
2018-07-12T12:00:01.175Z,5.9
2018-07-12T12:05:01.020Z,5.8
2018-07-12T12:10:01.094Z,6.0
2018-07-12T12:15:01.038Z,5.8
2018-07-12T12:20:01.193Z,5.5
2018-07-12T12:25:01.068Z,5.5
2018-07-12T12:30:01.163Z,5.2
2018-07-12T12:35:01.064Z,5.0
2018-07-12T12:40:01.141Z,5.0
2018-07-12T12:45:01.071Z,5.0
2018-07-12T12:50:01.222Z,5.2
2018-07-12T13:00:01.348Z,5.4
2018-07-12T13:05:01.081Z,5.6
2018-07-12T13:15:01.209Z,5.8
2018-07-12T13:20:01.234Z,6.1
2018-07-12T13:25:01.064Z,6.2
2018-07-12T13:30:01.220Z,6.4
2018-07-12T13:40:01.167Z,6.2
2018-07-12T13:45:01.160Z,6.1
2018-07-12T13:50:01.158Z,6.4
2018-07-12T13:55:01.100Z,6.6
2018-07-12T14:00:01.237Z,7.2
2018-07-12T14:05:01.326Z,7.5
2018-07-12T14:10:01.194Z,7.6
2018-07-12T14:15:01.107Z,7.4
2018-07-12T14:20:01.294Z,7.4
2018-07-12T14:25:01.141Z,7.2
2018-07-12T14:30:01.211Z,7.0
2018-07-12T14:35:01.146Z,7.0
2018-07-12T14:40:01.151Z,7.0
2018-07-12T14:45:01.137Z,6.6
2018-07-12T14:50:01.175Z,6.2
2018-07-12T14:55:01.159Z,6.2
2018-07-12T15:00:01.288Z,6.1
2018-07-12T15:05:01.154Z,6.0
2018-07-12T15:10:01.235Z,5.9
2018-07-12T15:15:01.166Z,6.1
2018-07-12T15:20:01.145Z,5.9
2018-07-12T15:30:01.162Z,5.5
2018-07-12T15:35:01.176Z,5.6
2018-07-12T15:40:01.245Z,5.4
2018-07-12T15:45:01.175Z,5.4
2018-07-12T15:55:01.281Z,5.5
2018-07-12T16:00:01.224Z,5.5
2018-07-12T16:05:01.195Z,5.7
2018-07-12T16:10:01.204Z,5.8
2018-07-12T16:15:01.224Z,5.5
2018-07-12T16:20:01.355Z,5.5
2018-07-12T16:30:01.652Z,5.2
2018-07-12T16:35:01.272Z,5.2
2018-07-12T16:40:01.208Z,5.5
2018-07-12T16:45:01.214Z,5.8
2018-07-12T16:50:01.273Z,6.2
2018-07-12T16:55:01.215Z,6.4
2018-07-12T17:00:01.225Z,6.7
2018-07-12T17:05:01.232Z,6.9
2018-07-12T17:10:01.252Z,7.0
2018-07-12T17:15:06.012Z,6.8
2018-07-12T17:20:01.359Z,7.2
2018-07-12T17:25:01.205Z,7.2
2018-07-12T17:30:01.264Z,7.0
2018-07-12T17:35:01.337Z,7.0
2018-07-12T17:40:01.340Z,7.0
2018-07-12T17:45:01.242Z,7.0
2018-07-12T17:50:01.272Z,7.0
2018-07-12T17:55:01.215Z,7.4
2018-07-12T18:00:01.289Z,7.7
2018-07-12T18:05:01.330Z,7.8
2018-07-12T18:10:01.226Z,7.4
2018-07-12T18:15:01.231Z,7.3
2018-07-12T18:20:01.303Z,7.3
2018-07-12T18:25:01.221Z,7.0
2018-07-12T18:30:01.293Z,7.2
2018-07-12T18:35:01.230Z,8.0
2018-07-12T18:40:01.366Z,8.4
2018-07-12T18:45:01.296Z,8.5
2018-07-12T18:50:01.368Z,9.4
2018-07-12T18:55:01.252Z,9.6
2018-07-12T19:00:01.312Z,9.8
2018-07-12T19:05:01.250Z,10.6
2018-07-12T19:10:01.241Z,11.3
2018-07-12T19:15:01.628Z,11.0
2018-07-12T19:20:01.250Z,11.3
2018-07-12T19:25:01.252Z,11.5
2018-07-12T19:30:01.253Z,11.2
2018-07-12T19:35:02.056Z,11.0
2018-07-12T19:40:01.411Z,11.2
2018-07-12T19:45:01.255Z,11.6
2018-07-12T19:50:01.490Z,11.8
2018-07-12T19:55:01.288Z,12.2
2018-07-12T20:00:01.415Z,12.8
2018-07-12T20:05:01.306Z,13.0
2018-07-12T20:10:01.292Z,12.9
2018-07-12T20:15:01.269Z,13.1
2018-07-12T20:20:01.400Z,13.5
2018-07-12T20:25:01.276Z,13.4
2018-07-12T20:30:01.348Z,13.7
2018-07-12T20:35:01.285Z,13.9
2018-07-12T20:40:01.278Z,14.3
2018-07-12T20:45:01.257Z,14.2
2018-07-12T20:50:01.422Z,14.3
2018-07-12T20:55:01.424Z,14.4
2018-07-12T21:00:01.408Z,15.0
2018-07-12T21:05:01.306Z,14.9
2018-07-12T21:10:01.302Z,15.2
2018-07-12T21:15:01.303Z,15.6
2018-07-12T21:20:01.431Z,15.9
2018-07-12T21:25:01.311Z,16.2
2018-07-12T21:30:01.385Z,16.8
2018-07-12T21:35:01.320Z,17.0
2018-07-12T21:40:06.468Z,17.2
2018-07-12T21:45:01.351Z,17.7
2018-07-12T21:50:01.448Z,17.6
2018-07-12T21:55:01.325Z,17.3
2018-07-12T22:00:01.396Z,17.5
2018-07-12T22:05:01.352Z,18.2
2018-07-12T22:10:01.390Z,18.2
2018-07-12T22:15:01.391Z,18.4
2018-07-12T22:20:01.450Z,19.6
2018-07-12T22:25:01.349Z,20.5
2018-07-12T22:30:01.404Z,20.4
2018-07-12T22:35:01.348Z,20.6
2018-07-12T22:45:01.408Z,20.0
2018-07-12T22:50:01.471Z,20.1
2018-07-12T22:55:01.367Z,20.0
2018-07-12T23:00:01.434Z,20.0
2018-07-12T23:05:01.373Z,20.6
2018-07-12T23:10:01.396Z,20.7
2018-07-12T23:15:01.389Z,20.4
2018-07-12T23:20:01.584Z,20.6
2018-07-12T23:25:01.397Z,20.6
2018-07-12T23:30:06.450Z,20.5
2018-07-12T23:35:01.384Z,20.5
2018-07-12T23:40:01.369Z,20.3
2018-07-12T23:45:01.368Z,20.4
2018-07-12T23:50:01.498Z,20.2
2018-07-12T23:55:06.445Z,20.6
